createdAt,value
2023-05-10T00:01:46.827Z,16.70
2023-05-10T00:04:13.698Z,16.50
2023-05-10T00:06:40.457Z,17.10
2023-05-10T00:09:07.260Z,17.20
2023-05-10T00:11:33.920Z,16.60
2023-05-10T00:14:00.635Z,16.10
2023-05-10T00:16:27.287Z,16.60
2023-05-10T00:18:53.925Z,17.00
2023-05-10T00:23:47.607Z,14.80
2023-05-10T00:26:14.280Z,16.70
2023-05-10T00:28:40.881Z,16.50
2023-05-10T00:31:07.629Z,16.70
2023-05-10T00:33:34.225Z,16.20
2023-05-10T00:36:00.886Z,16.90
2023-05-10T00:38:27.499Z,16.70
2023-05-10T00:40:54.108Z,16.60
2023-05-10T00:43:20.698Z,16.70
2023-05-10T00:45:47.754Z,16.30
2023-05-10T00:48:14.465Z,15.80
2023-05-10T00:50:41.172Z,15.40
2023-05-10T00:53:08.384Z,14.40
2023-05-10T00:55:35.103Z,15.00
2023-05-10T00:58:02.496Z,16.50
2023-05-10T01:00:30.646Z,16.10
2023-05-10T01:02:57.424Z,15.60
2023-05-10T01:05:24.222Z,16.10
2023-05-10T01:07:50.942Z,16.10
2023-05-10T01:10:17.896Z,14.30
2023-05-10T01:12:46.276Z,14.90
2023-05-10T01:15:13.825Z,15.90
2023-05-10T01:17:41.365Z,16.10
2023-05-10T01:20:09.220Z,16.20
2023-05-10T01:22:47.980Z,14.60
2023-05-10T01:25:26.710Z,14.40
2023-05-10T01:28:12.255Z,14.40
2023-05-10T01:30:57.754Z,14.40
2023-05-10T01:33:29.857Z,14.30
2023-05-10T01:36:00.439Z,14.20
2023-05-10T01:38:51.461Z,15.90
2023-05-10T01:41:27.110Z,14.40
2023-05-10T01:43:58.477Z,14.30
2023-05-10T01:46:32.469Z,14.30
2023-05-10T01:49:00.973Z,14.40
2023-05-10T01:51:30.283Z,14.00
2023-05-10T01:53:59.933Z,13.70
2023-05-10T01:56:27.388Z,13.80
2023-05-10T01:58:54.637Z,13.80
2023-05-10T02:01:22.638Z,13.70
2023-05-10T02:03:51.100Z,13.60
2023-05-10T02:06:19.274Z,15.90
2023-05-10T02:08:47.016Z,15.70
2023-05-10T02:11:14.666Z,14.50
2023-05-10T02:13:42.000Z,15.30
2023-05-10T02:16:08.975Z,13.40
2023-05-10T02:18:36.965Z,13.30
2023-05-10T02:21:04.108Z,13.30
2023-05-10T02:23:31.140Z,14.30
2023-05-10T02:25:58.099Z,13.50
2023-05-10T02:28:25.987Z,13.50
2023-05-10T02:30:53.264Z,13.60
2023-05-10T02:33:20.860Z,13.20
2023-05-10T02:35:47.867Z,14.70
2023-05-10T02:38:15.404Z,13.20
2023-05-10T02:40:42.263Z,13.00
2023-05-10T02:43:10.610Z,15.60
2023-05-10T02:45:37.473Z,15.00
2023-05-10T02:48:04.227Z,14.00
2023-05-10T02:50:33.302Z,14.10
2023-05-10T02:53:07.688Z,13.80
2023-05-10T02:55:37.487Z,14.00
2023-05-10T02:58:04.280Z,13.50
2023-05-10T03:00:30.910Z,13.30
2023-05-10T03:02:57.620Z,14.60
2023-05-10T03:05:24.427Z,13.00
2023-05-10T03:07:51.989Z,13.60
2023-05-10T03:10:19.234Z,15.20
2023-05-10T03:13:12.491Z,13.90
2023-05-10T03:15:48.404Z,13.70
2023-05-10T03:18:26.163Z,13.70
2023-05-10T03:20:56.464Z,13.70
2023-05-10T03:23:26.200Z,13.40
2023-05-10T03:25:53.105Z,13.70
2023-05-10T03:28:21.531Z,12.70
2023-05-10T03:30:48.278Z,13.10
2023-05-10T03:33:15.247Z,12.60
2023-05-10T03:35:41.944Z,12.70
2023-05-10T03:38:08.625Z,13.20
2023-05-10T03:40:35.498Z,14.70
2023-05-10T03:45:29.286Z,13.30
2023-05-10T03:50:23.401Z,13.20
2023-05-10T03:52:50.003Z,12.40
2023-05-10T04:00:11.231Z,13.20
2023-05-10T04:02:38.602Z,13.20
2023-05-10T04:05:05.611Z,12.80
2023-05-10T04:07:32.328Z,13.10
2023-05-10T04:12:26.167Z,13.00
2023-05-10T04:14:52.806Z,13.00
2023-05-10T04:17:19.471Z,14.40
2023-05-10T04:19:46.137Z,14.70
2023-05-10T04:22:12.917Z,11.90
2023-05-10T04:27:06.729Z,12.80
2023-05-10T04:29:33.421Z,12.60
2023-05-10T04:32:00.070Z,12.80
2023-05-10T04:34:26.711Z,12.80
2023-05-10T04:36:53.423Z,12.60
2023-05-10T04:39:20.083Z,12.40
2023-05-10T04:41:46.759Z,14.10
2023-05-10T04:44:13.408Z,12.40
2023-05-10T04:46:40.164Z,13.80
2023-05-10T04:49:06.955Z,13.70
2023-05-10T04:51:33.584Z,12.60
2023-05-10T04:54:05.978Z,13.80
2023-05-10T04:56:33.963Z,13.80
2023-05-10T04:59:00.983Z,14.30
2023-05-10T05:01:27.750Z,12.80
2023-05-10T05:03:55.635Z,12.80
2023-05-10T05:06:23.688Z,13.00
2023-05-10T05:08:50.704Z,12.20
2023-05-10T05:11:18.144Z,11.50
2023-05-10T05:13:44.810Z,12.90
2023-05-10T05:16:12.469Z,12.80
2023-05-10T05:18:39.392Z,12.50
2023-05-10T05:23:33.438Z,13.30
2023-05-10T05:26:00.228Z,14.70
2023-05-10T05:28:26.911Z,12.40
2023-05-10T05:33:20.735Z,13.40
2023-05-10T05:35:51.751Z,12.60
2023-05-10T05:38:18.576Z,14.70
2023-05-10T05:40:46.503Z,12.30
2023-05-10T05:43:13.100Z,13.60
2023-05-10T05:45:39.797Z,12.90
2023-05-10T05:48:07.948Z,13.70
2023-05-10T05:50:34.738Z,13.50
2023-05-10T05:57:57.178Z,13.50
2023-05-10T06:02:51.571Z,13.50
2023-05-10T06:05:18.445Z,14.50
2023-05-10T06:10:12.243Z,13.90
2023-05-10T06:12:38.847Z,15.80
2023-05-10T06:15:06.736Z,16.00
2023-05-10T06:17:33.392Z,13.80
2023-05-10T06:20:00.004Z,12.90
2023-05-10T06:22:26.667Z,14.80
2023-05-10T06:24:53.238Z,13.40
2023-05-10T06:27:23.116Z,13.90
2023-05-10T06:29:52.253Z,14.50
2023-05-10T06:32:23.099Z,13.30
2023-05-10T06:34:51.964Z,13.70
2023-05-10T06:37:18.643Z,13.80
2023-05-10T06:39:45.284Z,13.50
2023-05-10T06:42:11.901Z,16.20
2023-05-10T06:44:38.500Z,16.50
2023-05-10T06:47:05.482Z,13.10
2023-05-10T06:49:32.121Z,14.40
2023-05-10T06:54:25.793Z,14.50
2023-05-10T07:04:14.729Z,15.00
2023-05-10T07:06:42.529Z,14.90
2023-05-10T07:09:09.250Z,15.20
2023-05-10T07:11:36.202Z,14.80
2023-05-10T07:14:02.798Z,15.20
2023-05-10T07:16:29.755Z,15.30
2023-05-10T07:18:56.481Z,16.70
2023-05-10T07:21:25.267Z,15.20
2023-05-10T07:23:52.529Z,15.60
2023-05-10T07:26:19.482Z,15.30
2023-05-10T07:28:46.081Z,15.10
2023-05-10T07:31:12.655Z,14.90
2023-05-10T07:33:39.361Z,15.00
2023-05-10T07:36:06.012Z,15.00
2023-05-10T07:38:32.619Z,14.90
2023-05-10T07:40:59.192Z,14.90
2023-05-10T07:43:25.832Z,14.50
2023-05-10T07:45:55.374Z,15.20
2023-05-10T07:48:22.846Z,15.50
2023-05-10T07:50:49.482Z,15.30
2023-05-10T07:53:16.503Z,14.80
2023-05-10T07:55:43.127Z,16.80
2023-05-10T07:58:09.712Z,15.80
2023-05-10T08:00:36.427Z,15.70
2023-05-10T08:07:57.416Z,16.70
2023-05-10T08:10:25.419Z,17.70
2023-05-10T08:15:19.310Z,15.80
2023-05-10T08:17:46.241Z,16.00
2023-05-10T08:20:13.884Z,17.30
2023-05-10T08:22:42.143Z,17.80
2023-05-10T08:25:09.133Z,16.10
2023-05-10T08:27:35.808Z,16.30
2023-05-10T08:30:02.415Z,16.80
2023-05-10T08:32:29.117Z,17.20
2023-05-10T08:34:56.924Z,15.40
2023-05-10T08:37:26.639Z,17.30
2023-05-10T08:39:53.269Z,16.40
2023-05-10T08:42:21.456Z,17.90
2023-05-10T08:44:49.682Z,17.80
2023-05-10T08:47:17.399Z,18.60
2023-05-10T08:49:45.598Z,16.80
2023-05-10T08:52:13.135Z,19.10
2023-05-10T08:54:40.649Z,18.20
2023-05-10T08:57:07.434Z,16.50
2023-05-10T08:59:34.214Z,15.40
2023-05-10T09:02:01.541Z,17.60
2023-05-10T09:04:28.913Z,17.80
2023-05-10T09:06:57.352Z,17.60
2023-05-10T09:09:25.061Z,16.70
2023-05-10T09:11:52.393Z,16.00
2023-05-10T09:14:19.427Z,16.30
2023-05-10T09:16:46.971Z,18.70
2023-05-10T09:19:13.675Z,18.00
2023-05-10T09:22:03.096Z,18.20
2023-05-10T09:24:31.016Z,17.10
2023-05-10T09:26:58.297Z,16.20
2023-05-10T09:29:24.977Z,16.30
2023-05-10T09:31:52.708Z,16.40
2023-05-10T09:34:20.008Z,16.10
2023-05-10T09:36:53.451Z,18.50
2023-05-10T09:39:20.183Z,16.60
2023-05-10T09:41:46.849Z,16.10
2023-05-10T09:46:41.027Z,15.60
2023-05-10T09:49:07.670Z,17.60
2023-05-10T09:51:36.958Z,17.00
2023-05-10T09:54:13.597Z,17.90
2023-05-10T09:56:41.497Z,15.90
2023-05-10T09:59:11.774Z,17.00
2023-05-10T10:01:38.883Z,15.40
2023-05-10T10:04:09.720Z,15.80
2023-05-10T10:06:59.606Z,16.40
2023-05-10T10:09:26.582Z,16.20
2023-05-10T10:11:53.534Z,17.40
2023-05-10T10:14:20.128Z,17.20
2023-05-10T10:16:59.568Z,18.30
2023-05-10T10:19:33.987Z,18.00
2023-05-10T10:22:01.359Z,18.80
2023-05-10T10:24:27.997Z,18.10
2023-05-10T10:26:57.302Z,18.00
2023-05-10T10:29:31.557Z,19.50
2023-05-10T10:32:10.291Z,17.50
2023-05-10T10:34:37.897Z,17.60
2023-05-10T10:39:31.858Z,18.70
2023-05-10T10:41:59.184Z,18.60
2023-05-10T10:44:26.916Z,19.10
2023-05-10T10:47:01.676Z,18.60
2023-05-10T10:49:28.498Z,18.80
2023-05-10T10:52:36.645Z,18.70
2023-05-10T10:57:34.210Z,17.30
2023-05-10T11:00:19.337Z,17.30
2023-05-10T11:02:52.794Z,17.30
2023-05-10T11:05:29.028Z,17.50
2023-05-10T11:07:59.608Z,17.60
2023-05-10T11:10:27.165Z,16.80
2023-05-10T11:13:02.034Z,16.80
2023-05-10T11:15:34.891Z,17.40
2023-05-10T11:18:17.267Z,17.80
2023-05-10T11:20:44.088Z,17.70
2023-05-10T11:23:12.793Z,17.40
2023-05-10T11:25:47.679Z,16.90
2023-05-10T11:28:14.490Z,17.70
2023-05-10T11:30:42.186Z,18.40
2023-05-10T11:33:09.296Z,19.80
2023-05-10T11:35:42.479Z,19.60
2023-05-10T11:38:13.687Z,19.90
2023-05-10T11:40:40.865Z,20.30
2023-05-10T11:43:09.302Z,20.30
2023-05-10T11:45:36.284Z,19.30
2023-05-10T11:48:03.613Z,19.60
2023-05-10T11:50:30.376Z,17.90
2023-05-10T11:52:57.788Z,17.70
2023-05-10T11:55:27.540Z,17.80
2023-05-10T11:57:54.777Z,19.60
2023-05-10T12:00:22.023Z,19.60
2023-05-10T12:02:49.268Z,19.60
2023-05-10T12:05:16.193Z,19.00
2023-05-10T12:07:42.859Z,19.20
2023-05-10T12:10:10.684Z,19.20
2023-05-10T12:12:42.720Z,18.80
2023-05-10T12:15:36.932Z,19.60
2023-05-10T12:18:04.032Z,20.60
2023-05-10T12:20:31.182Z,20.90
2023-05-10T12:23:00.690Z,21.50
2023-05-10T12:25:31.582Z,20.50
2023-05-10T12:27:58.838Z,20.30
2023-05-10T12:32:55.710Z,20.60
2023-05-10T12:35:27.966Z,21.50
2023-05-10T12:40:22.015Z,20.80
2023-05-10T12:42:49.879Z,19.70
2023-05-10T12:45:18.560Z,21.00
2023-05-10T12:47:51.525Z,20.50
2023-05-10T12:50:51.862Z,20.00
2023-05-10T12:53:18.889Z,20.10
2023-05-10T12:55:45.787Z,21.70
2023-05-10T12:58:31.479Z,21.70
2023-05-10T13:01:01.820Z,21.00
2023-05-10T13:03:28.474Z,21.40
2023-05-10T13:05:56.733Z,20.70
2023-05-10T13:08:26.759Z,20.60
2023-05-10T13:10:53.772Z,19.60
2023-05-10T13:13:20.653Z,20.10
2023-05-10T13:15:47.315Z,21.40
2023-05-10T13:20:41.331Z,19.00
2023-05-10T13:23:08.082Z,21.20
2023-05-10T13:25:39.070Z,21.20
2023-05-10T13:28:06.985Z,19.00
2023-05-10T13:30:33.768Z,18.80
2023-05-10T13:33:00.747Z,20.00
2023-05-10T13:35:27.438Z,20.40
2023-05-10T13:37:54.573Z,19.70
2023-05-10T13:40:21.216Z,20.40
2023-05-10T13:42:50.539Z,20.20
2023-05-10T13:45:17.437Z,19.40
2023-05-10T13:47:44.890Z,19.20
2023-05-10T13:50:11.640Z,20.00
2023-05-10T13:52:38.477Z,20.10
2023-05-10T13:55:05.419Z,20.40
2023-05-10T13:57:32.164Z,19.40
2023-05-10T14:00:07.870Z,19.60
2023-05-10T14:02:42.079Z,18.80
2023-05-10T14:05:14.074Z,20.70
2023-05-10T14:07:42.500Z,19.70
2023-05-10T14:10:11.676Z,20.20
2023-05-10T14:12:38.398Z,20.90
2023-05-10T14:15:07.762Z,21.00
2023-05-10T14:17:34.728Z,19.70
2023-05-10T14:20:01.657Z,20.80
2023-05-10T14:22:28.477Z,20.50
2023-05-10T14:24:55.206Z,19.60
2023-05-10T14:27:24.549Z,20.40
2023-05-10T14:32:18.437Z,17.30
2023-05-10T14:39:39.492Z,15.50
2023-05-10T14:42:06.409Z,15.20
2023-05-10T15:21:26.546Z,13.90
2023-05-10T15:26:20.407Z,13.70
2023-05-10T15:28:47.102Z,15.10
2023-05-10T15:31:13.755Z,13.10
2023-05-10T15:33:40.527Z,13.10
2023-05-10T15:36:07.640Z,14.80
2023-05-10T15:38:34.326Z,13.60
2023-05-10T15:41:01.150Z,15.00
2023-05-10T15:43:27.949Z,12.50
2023-05-10T15:45:54.593Z,12.90
2023-05-10T15:48:21.245Z,12.90
2023-05-10T15:50:47.932Z,12.50
2023-05-10T15:53:14.625Z,14.60
2023-05-10T15:55:41.320Z,13.50
2023-05-10T15:58:08.146Z,15.30
2023-05-10T16:00:34.886Z,14.70
2023-05-10T16:03:01.616Z,14.80
2023-05-10T16:05:32.015Z,13.70
2023-05-10T16:07:58.664Z,13.10
2023-05-10T16:10:25.284Z,13.70
2023-05-10T16:12:52.024Z,14.70
2023-05-10T16:15:19.003Z,14.90
2023-05-10T16:17:45.919Z,13.10
2023-05-10T16:20:12.722Z,13.00
2023-05-10T16:22:39.364Z,13.00
2023-05-10T16:25:06.184Z,12.80
2023-05-10T16:27:33.519Z,13.70
2023-05-10T16:30:00.365Z,12.70
2023-05-10T16:32:27.009Z,13.00
2023-05-10T16:34:53.651Z,14.80
2023-05-10T16:37:20.834Z,12.80
2023-05-10T16:39:47.818Z,12.80
2023-05-10T16:42:14.385Z,12.70
2023-05-10T16:44:41.007Z,14.70
2023-05-10T16:49:36.158Z,13.80
2023-05-10T16:52:03.230Z,13.20
2023-05-10T16:54:29.844Z,15.10
2023-05-10T16:59:23.799Z,14.20
2023-05-10T17:01:53.129Z,14.30
2023-05-10T17:04:20.059Z,13.90
2023-05-10T17:06:46.806Z,14.20
2023-05-10T17:09:13.425Z,13.00
2023-05-10T17:11:40.026Z,14.80
2023-05-10T17:14:07.328Z,13.60
2023-05-10T17:16:33.976Z,16.20
2023-05-10T17:19:01.240Z,13.60
2023-05-10T17:21:27.866Z,13.50
2023-05-10T17:23:54.452Z,14.20
2023-05-10T17:26:22.305Z,13.80
2023-05-10T17:28:48.915Z,14.60
2023-05-10T17:31:15.820Z,14.70
2023-05-10T17:33:42.627Z,15.70
2023-05-10T17:36:09.388Z,15.20
2023-05-10T17:38:36.566Z,14.70
2023-05-10T17:41:03.491Z,13.40
2023-05-10T17:43:30.161Z,14.10
2023-05-10T17:45:56.970Z,14.10
2023-05-10T17:48:23.733Z,15.30
2023-05-10T17:50:50.973Z,15.30
2023-05-10T17:53:18.442Z,13.60
2023-05-10T17:55:45.181Z,13.80
2023-05-10T17:58:12.235Z,13.50
2023-05-10T18:00:38.962Z,13.40
2023-05-10T18:03:05.833Z,13.70
2023-05-10T18:05:35.452Z,15.00
2023-05-10T18:08:02.325Z,13.20
2023-05-10T18:10:28.912Z,12.90
2023-05-10T18:12:55.717Z,12.80
2023-05-10T18:22:44.156Z,14.30
2023-05-10T18:25:10.840Z,12.90
2023-05-10T18:27:37.494Z,11.70
2023-05-10T18:30:04.982Z,12.90
2023-05-10T18:32:31.877Z,13.40
2023-05-10T18:34:58.567Z,12.70
2023-05-10T18:42:20.543Z,13.00
2023-05-10T18:44:47.261Z,12.90
2023-05-10T18:47:14.045Z,13.10
2023-05-10T18:49:40.677Z,13.20
2023-05-10T18:52:07.401Z,13.70
2023-05-10T18:54:33.979Z,13.20
2023-05-10T18:57:03.667Z,13.20
2023-05-10T18:59:30.423Z,13.60
2023-05-10T19:01:57.546Z,13.60
2023-05-10T19:04:24.498Z,12.90
2023-05-10T19:06:51.576Z,13.50
2023-05-10T19:09:20.135Z,12.90
2023-05-10T19:11:46.850Z,12.80
2023-05-10T19:14:13.499Z,12.30
2023-05-10T19:16:41.720Z,13.00
2023-05-10T19:19:08.403Z,12.80
2023-05-10T19:21:35.271Z,13.10
2023-05-10T19:24:02.062Z,13.30
2023-05-10T19:26:28.849Z,12.70
2023-05-10T19:28:57.430Z,13.60
2023-05-10T19:31:24.455Z,13.10
2023-05-10T19:33:51.211Z,13.20
2023-05-10T19:36:17.811Z,13.10
2023-05-10T19:38:44.522Z,12.80
2023-05-10T19:41:11.725Z,13.10
2023-05-10T19:43:39.558Z,14.10
2023-05-10T19:46:06.407Z,12.80
2023-05-10T19:48:33.178Z,12.70
2023-05-10T19:51:01.014Z,13.50
2023-05-10T19:53:27.849Z,14.60
2023-05-10T19:55:54.661Z,13.40
2023-05-10T19:58:21.283Z,13.70
2023-05-10T20:00:48.112Z,13.10
2023-05-10T20:03:15.189Z,13.60
2023-05-10T20:05:41.890Z,12.60
2023-05-10T20:08:08.568Z,12.90
2023-05-10T20:10:35.270Z,12.90
2023-05-10T20:13:01.927Z,12.90
2023-05-10T20:15:29.015Z,13.70
2023-05-10T20:17:55.884Z,12.90
2023-05-10T20:20:22.698Z,12.80
2023-05-10T20:22:49.692Z,12.90
2023-05-10T20:25:16.916Z,12.60
2023-05-10T20:27:43.600Z,12.70
2023-05-10T20:30:10.792Z,12.70
2023-05-10T20:32:37.732Z,13.10
2023-05-10T20:35:05.133Z,12.70
2023-05-10T20:37:31.745Z,13.10
2023-05-10T20:39:58.481Z,12.50
2023-05-10T20:42:25.169Z,13.10
2023-05-10T20:44:51.983Z,12.70
2023-05-10T20:47:18.702Z,13.70
2023-05-10T20:49:45.736Z,12.50
2023-05-10T20:52:12.403Z,12.50
2023-05-10T20:57:06.081Z,12.50
2023-05-10T20:59:32.709Z,12.70
2023-05-10T21:01:59.477Z,14.00
2023-05-10T21:04:26.195Z,12.30
2023-05-10T21:06:53.325Z,12.30
2023-05-10T21:09:20.078Z,12.20
2023-05-10T21:11:46.780Z,12.00
2023-05-10T21:14:13.500Z,12.40
2023-05-10T21:16:40.222Z,15.20
2023-05-10T21:19:10.092Z,14.60
2023-05-10T21:21:36.797Z,12.40
2023-05-10T21:24:03.538Z,12.20
2023-05-10T21:26:30.471Z,12.90
2023-05-10T21:28:58.192Z,12.10
2023-05-10T21:31:24.910Z,14.40
2023-05-10T21:33:51.518Z,13.00
2023-05-10T21:36:18.318Z,12.20
2023-05-10T21:38:45.114Z,12.50
2023-05-10T21:41:11.826Z,12.20
2023-05-10T21:43:38.487Z,12.40
2023-05-10T21:46:05.239Z,12.70
2023-05-10T21:48:32.137Z,13.90
2023-05-10T21:50:59.192Z,14.00
2023-05-10T21:53:25.805Z,14.10
2023-05-10T21:55:52.497Z,13.70
2023-05-10T21:58:19.133Z,14.00
2023-05-10T22:00:45.775Z,14.60
2023-05-10T22:03:12.574Z,12.60
2023-05-10T22:05:39.396Z,12.40
2023-05-10T22:08:06.698Z,13.20
2023-05-10T22:10:33.628Z,14.00
2023-05-10T22:13:00.474Z,14.00
2023-05-10T22:15:27.242Z,12.00
2023-05-10T22:17:54.023Z,12.00
2023-05-10T22:20:21.170Z,14.20
2023-05-10T22:22:47.874Z,13.60
2023-05-10T22:25:14.520Z,12.60
2023-05-10T22:27:41.452Z,12.00
2023-05-10T22:30:08.554Z,13.90
2023-05-10T22:32:35.247Z,12.40
2023-05-10T22:35:02.260Z,12.20
2023-05-10T22:37:28.929Z,13.90
2023-05-10T22:39:55.509Z,14.10
2023-05-10T22:42:22.174Z,11.90
2023-05-10T22:44:48.838Z,14.40
2023-05-10T22:47:16.407Z,12.90
2023-05-10T22:49:43.180Z,12.60
2023-05-10T22:52:09.982Z,12.90
2023-05-10T22:54:36.653Z,13.10
2023-05-10T22:57:03.385Z,12.40
2023-05-10T22:59:30.110Z,12.20
2023-05-10T23:01:56.937Z,12.00
2023-05-10T23:04:23.658Z,13.50
2023-05-10T23:06:50.342Z,11.80
2023-05-10T23:09:17.036Z,11.90
2023-05-10T23:11:43.680Z,12.40
2023-05-10T23:14:10.339Z,13.70
2023-05-10T23:16:36.991Z,13.90
2023-05-10T23:19:03.700Z,13.40
2023-05-10T23:21:32.147Z,12.50
2023-05-10T23:23:59.087Z,13.50
2023-05-10T23:26:25.885Z,13.60
2023-05-10T23:28:52.477Z,12.90
2023-05-10T23:31:19.143Z,13.70
2023-05-10T23:33:45.844Z,11.60
2023-05-10T23:36:12.459Z,13.80
2023-05-10T23:38:39.447Z,13.00
2023-05-10T23:43:33.160Z,11.80
2023-05-10T23:45:59.814Z,13.00
2023-05-10T23:48:26.734Z,13.30
2023-05-10T23:50:53.657Z,13.40
2023-05-10T23:53:20.875Z,13.10
2023-05-10T23:55:47.771Z,12.10
2023-05-10T23:58:14.517Z,12.40
